• Join FlightAware (Why Join?)
  • Login
  • US Flag 
07:15AM EDT


 

Airport Tracker/Info


-or-


 

Live Flight TrackerFlight Track Log ✈ PDT4162 ✈ 23-May-2013 ✈ KBWI - KPHL

Flight Track Log - Related Links

Times and Time Zones

All times are in EDT time to prevent confusion due to time zone crossing. See the PDT4162 flight status page for this flight to view local times or setup timezone preferences in your user account.

Time Position Orientation Groundspeed Altitude Reporting Facility
EDT Latitude Longitude Course Direction KTS MPH feet Rate Location/Type
11:16AM 39.2167 -76.6667 43° Northeast 161 185 2,500  Level Potomac TRACON
11:17AM 39.2167 -76.6000 90° East 178 205 3,600 1,020 Climbing Potomac TRACON
11:18AM 39.2167 -76.5500 90° East 191 220 4,600 660 Climbing Potomac TRACON
11:19AM 39.2167 -76.4667 90° East 220 253 5,000 180 Climbing Potomac TRACON
11:20AM 39.2167 -76.3833 90° East 242 278 5,000  Level Potomac TRACON
11:21AM 39.3354 -75.9910 43° Northeast  Level FlightAware Approximate
11:21AM 39.2333 -76.3000 75° East 246 283 5,000  Level Potomac TRACON
11:23AM 39.2833 -76.1333 69° East 248 285 5,000  Level Philadelphia TRACON
11:24AM 39.3500 -76.0667 38° Northeast 249 287 5,000  Level Philadelphia TRACON
11:25AM 39.4000 -76.0167 38° Northeast 250 288 5,000  Level Philadelphia TRACON
11:26AM 39.4333 -75.9500 57° Northeast 249 287 5,000  Level Philadelphia TRACON
11:27AM 39.4667 -75.8667 63° Northeast 246 283 5,000  Level Philadelphia TRACON
11:28AM 39.4833 -75.7833 75° East 238 274 5,000  Level Philadelphia TRACON
11:29AM 39.4833 -75.7000 90° East 242 278 5,000  Level Philadelphia TRACON
11:30AM 39.4833 -75.6000 90° East 244 281 5,000  Level Philadelphia TRACON
11:31AM 39.5000 -75.5167 75° East 244 281 5,000  Level Philadelphia TRACON
11:32AM 39.5000 -75.4333 90° East 247 284 5,000  Level Philadelphia TRACON
11:33AM 39.5000 -75.3500 90° East 245 282 5,000 -240 Level Philadelphia TRACON
11:34AM 39.5167 -75.2667 75° East 266 306 4,600 -540 Descending Philadelphia TRACON
11:35AM 39.5833 -75.2167 30° Northeast 280 322 4,000 -720 Descending Philadelphia TRACON
11:36AM 39.6667 -75.1667 25° Northeast 273 314 3,200 -840 Descending Philadelphia TRACON